EGUB - Benson
Distance from station: E 5mi, 14km
Updated: 06/23/2018 9:50pm
Clear
Clear
 Wind from NNE
Wind: NNE 3 mph , 6 km/h
Temperature: 48°F , 9°C
Dew Point: 45°F , 7°C
Humidity: 87%
Barometer: 30.27 inHg , 1025 hPa
Clouds: Clear
Visibility: 6 miles , 10 km
2018/06/24 04:50 EGUB 240450Z AUTO 02003KT 9999 // NCD 09/07 Q1025